aviador You're here:

KOTG Decoded Metar

WORTHINGTON in MN, USA
Report Time2017-11-20 22:56:00
UTC Time2017-11-20 23:08:13
Flight Rules vfr VFR
Wind230° at 14 kt
W.Decomp.*RWY 18: 9.4 kt HW 10.4 kt RCW
RWY 29: 6.6 kt HW 12.4 kt LCW
W.Rank230° ranks 24
Current wind is above 230° avg. (9.1)
Visibility9999 m
Phenomena:N/A
Clouds:N/A
Expected CloudBase > 4,000 ft AGL from Temp-Dew spread
CeilingNone
Temp07°C (ISA -5)
Dew Point-3°C (49% RH)
AAT-0.4°C
QNH1000 hPa
Density Alt1,506 ft
Elevation1,575 ft
Report Wrong Elevation
Raw Report
METAR KOTG 202256Z AUTO 23014KT 10SM CLR 07/M03 A2953 RMK AO2 SLP015
T00721028=

Extra information for KOTG:More info

Metar Taf Metar & Taf Last 4 Metars F.Rules Stats Wind Profile Meteogram Temp Stats Airport Information Weather charts Add Link Nearby VenuesMetar ALERT Operation Metar Decoded Social comments

AIRNAV info for KOTG